Vburg, Mississippi
Current Conditions -  °F | °C
As of 10:35 PM on Tuesday 21 Oct 2014 (Local Time) from KVKS Reporting Station
Haze Haze  
Wind Chill: 59°   Ceiling: 4400
Heat Index: 59°   Visibility: 6mi
Dew Point: 57°   Wind: 0mph
Humidity: 94%   Direction: NA
Pressure: 30.07"   Gusts: NA
Location:  32.3524°N, 90.8776°W
Report Text: KVKS 220335Z AUTO 00000KT 6SM BR FEW003 BKN044 15/14 A3007 RMK A01
Loading
Personal Weather Stations






























Interactive Weather Map
Tropical Storm Tracking
New forecast layout! Learn more

10-Day Weather Forecast

Advertisements
Track Severe Weather on mobile